Saga Sapphire — 9HOF8 — position and weather

sailwx.info

Track history (hours):
 
Tides and Currents Weather Stations Pressure Air Temp Water Temp Dewpoint Dewpoint Depression Visibility Wind Speed Wind Dir Waves Ship Positions

Saga Sapphire

Last reported at 2015-Sep-05 03:34 UTC. Time now 2015-Sep-05 03:44 UTC.
Position N 54°35' E 018°52'.

Length 200 m; draft 8.6 m.

Type: Passenger vessel. MMSI: 256208000.

Date/timePositionNaut miles runAvg speedWind from/ knotsBaromVisibWave heightAir tempDewpointWater temp
2015-Sep-05 03:34N 54°35' E 018°52'1212.1
2015-Sep-05 02:34N 54°46' E 018°59'10 9.7
2015-Sep-05 01:34N 54°56' E 019°05'10 9.8
2015-Sep-05 00:34N 55°05' E 019°11'10 9.7
2015-Sep-04 23:33N 55°14' E 019°16'30910.3
2015-Sep-03 17:34N 59°31' E 024°36'6 6.2
2015-Sep-03 16:34N 59°27' E 024°46'0 0.1
2015-Sep-03 15:29N 59°27' E 024°46'0 0.0
2015-Sep-03 14:29N 59°27' E 024°46'0 0.0
2015-Sep-03 13:29N 59°27' E 024°46'0 0.0
2015-Sep-03 12:29N 59°27' E 024°46'0 0.0
2015-Sep-03 11:29N 59°27' E 024°46'0 0.0
2015-Sep-03 10:29N 59°27' E 024°46'0 0.0
2015-Sep-03 09:29N 59°27' E 024°46'0 0.0
2015-Sep-03 08:29N 59°27' E 024°46'0 0.0
2015-Sep-03 07:23N 59°27' E 024°46'0 0.0
2015-Sep-03 06:32N 59°27' E 024°46'0 0.0
2015-Sep-03 05:29N 59°27' E 024°46'1 1.4
2015-Sep-03 04:33N 59°28' E 024°46'1010.2
2015-Sep-03 03:33N 59°38' E 024°41'1514.6
2015-Sep-03 02:33N 59°49' E 025°01'3815.4
2015-Sep-03 00:05N 59°59' E 026°14'815.6
2015-Sep-02 23:33N 60°01' E 026°30'1715.5
2015-Sep-02 22:28N 59°60' E 027°04'5512.3
2015-Sep-02 18:00N 60°00' E 028°54'2024.4 090 / 181013.627.0 1.515.011.3
2015-Sep-02 17:11N 60°01' E 029°33'711.2
2015-Sep-02 16:33N 59°58' E 029°47'10 9.5
2015-Sep-02 15:33N 59°56' E 030°05'  
2015-Aug-31 05:14N 59°57' E 030°12'0 0.1
2015-Aug-31 04:33N 59°57' E 030°12'7 7.0
2015-Aug-31 03:33N 59°56' E 029°58'1010.2
2015-Aug-31 02:33N 59°60' E 029°39'8011.4
2015-Aug-30 19:33N 59°58' E 027°00'66 3.9
2015-Aug-30 02:21N 59°52' E 024°48'1215.1
2015-Aug-30 01:34N 59°45' E 024°29'1615.7
2015-Aug-30 00:34N 59°40' E 023°59'1615.8
2015-Aug-29 23:33N 59°35' E 023°29'1616.0
2015-Aug-29 22:33N 59°30' E 022°59'1615.8
2015-Aug-29 21:32N 59°24' E 022°30'1414.7
2015-Aug-29 20:33N 59°27' E 022°03'1615.8
2015-Aug-29 19:34N 59°32' E 021°33'1413.6
2015-Aug-29 18:33N 59°44' E 021°20'1111.2
2015-Aug-29 17:34N 59°54' E 021°32'1 0.0
2015-Aug-29 02:28N 59°54' E 021°33'910.3
2015-Aug-29 01:33N 59°46' E 021°21'9910.9
2015-Aug-28 16:30N 59°20' E 018°13'4 3.8
2015-Aug-28 15:26N 59°19' E 018°05'0 0.0
2015-Aug-28 14:32N 59°19' E 018°05'0 0.0
2015-Aug-28 13:32N 59°19' E 018°05'0 0.0
2015-Aug-28 12:32N 59°19' E 018°05'0 0.0
2015-Aug-28 11:32N 59°19' E 018°05'0 0.0
2015-Aug-28 10:32N 59°19' E 018°05'0 0.0
2015-Aug-28 09:26N 59°19' E 018°05'0 0.0
2015-Aug-28 08:32N 59°19' E 018°05'0 0.0
2015-Aug-28 07:29N 59°19' E 018°05'0 0.1
2015-Aug-28 06:31N 59°19' E 018°05'2 2.6
2015-Aug-28 05:33N 59°19' E 018°10'2 1.6
2015-Aug-28 04:33N 59°21' E 018°08'0 0.0
2015-Aug-28 03:33N 59°21' E 018°08'0 0.0
2015-Aug-28 02:33N 59°21' E 018°08'0 0.0
2015-Aug-28 01:33N 59°21' E 018°08'0 0.0
2015-Aug-28 00:33N 59°21' E 018°08'0 0.0
2015-Aug-27 23:33N 59°21' E 018°08'0 0.0
2015-Aug-27 22:33N 59°21' E 018°08'0 0.0
2015-Aug-27 21:33N 59°21' E 018°08'0 0.0
2015-Aug-27 20:33N 59°21' E 018°08'0 0.0
2015-Aug-27 19:33N 59°21' E 018°08'0 0.0
2015-Aug-27 18:33N 59°21' E 018°08'0 0.0
2015-Aug-27 17:33N 59°21' E 018°08'1 0.9
2015-Aug-27 16:33N 59°20' E 018°09'9 6.2
2015-Aug-27 15:06N 59°25' E 018°24'23011.5
2015-Aug-26 19:00N 55°48' E 020°48'   170 / 81018.010.8 1.519.016.3
Track history (hours):
 
Tides and Currents Weather Stations Pressure Air Temp Water Temp Dewpoint Dewpoint Depression Visibility Wind Speed Wind Dir Waves Ship Positions

Saga Sapphire

Last reported at 2015-Sep-05 03:34 UTC. Time now 2015-Sep-05 03:44 UTC.
Position N 54°35' E 018°52'.

Length 200 m; draft 8.6 m.

Type: Passenger vessel. MMSI: 256208000.

Date/timePositionNaut miles runAvg speedWind from/ knotsBaromVisibWave heightAir tempDewpointWater temp
2015-Sep-05 03:34N 54°35' E 018°52'1212.1
2015-Sep-05 02:34N 54°46' E 018°59'10 9.7
2015-Sep-05 01:34N 54°56' E 019°05'10 9.8
2015-Sep-05 00:34N 55°05' E 019°11'10 9.7
2015-Sep-04 23:33N 55°14' E 019°16'30910.3
2015-Sep-03 17:34N 59°31' E 024°36'6 6.2
2015-Sep-03 16:34N 59°27' E 024°46'0 0.1
2015-Sep-03 15:29N 59°27' E 024°46'0 0.0
2015-Sep-03 14:29N 59°27' E 024°46'0 0.0
2015-Sep-03 13:29N 59°27' E 024°46'0 0.0
2015-Sep-03 12:29N 59°27' E 024°46'0 0.0
2015-Sep-03 11:29N 59°27' E 024°46'0 0.0
2015-Sep-03 10:29N 59°27' E 024°46'0 0.0
2015-Sep-03 09:29N 59°27' E 024°46'0 0.0
2015-Sep-03 08:29N 59°27' E 024°46'0 0.0
2015-Sep-03 07:23N 59°27' E 024°46'0 0.0
2015-Sep-03 06:32N 59°27' E 024°46'0 0.0
2015-Sep-03 05:29N 59°27' E 024°46'1 1.4
2015-Sep-03 04:33N 59°28' E 024°46'1010.2
2015-Sep-03 03:33N 59°38' E 024°41'1514.6
2015-Sep-03 02:33N 59°49' E 025°01'3815.4
2015-Sep-03 00:05N 59°59' E 026°14'815.6
2015-Sep-02 23:33N 60°01' E 026°30'1715.5
2015-Sep-02 22:28N 59°60' E 027°04'5512.3
2015-Sep-02 18:00N 60°00' E 028°54'2024.4 090 / 181013.627.0 1.515.011.3
2015-Sep-02 17:11N 60°01' E 029°33'711.2
2015-Sep-02 16:33N 59°58' E 029°47'10 9.5
2015-Sep-02 15:33N 59°56' E 030°05'  
2015-Aug-31 05:14N 59°57' E 030°12'0 0.1
2015-Aug-31 04:33N 59°57' E 030°12'7 7.0
2015-Aug-31 03:33N 59°56' E 029°58'1010.2
2015-Aug-31 02:33N 59°60' E 029°39'8011.4
2015-Aug-30 19:33N 59°58' E 027°00'66 3.9
2015-Aug-30 02:21N 59°52' E 024°48'1215.1
2015-Aug-30 01:34N 59°45' E 024°29'1615.7
2015-Aug-30 00:34N 59°40' E 023°59'1615.8
2015-Aug-29 23:33N 59°35' E 023°29'1616.0
2015-Aug-29 22:33N 59°30' E 022°59'1615.8
2015-Aug-29 21:32N 59°24' E 022°30'1414.7
2015-Aug-29 20:33N 59°27' E 022°03'1615.8
2015-Aug-29 19:34N 59°32' E 021°33'1413.6
2015-Aug-29 18:33N 59°44' E 021°20'1111.2
2015-Aug-29 17:34N 59°54' E 021°32'1 0.0
2015-Aug-29 02:28N 59°54' E 021°33'910.3
2015-Aug-29 01:33N 59°46' E 021°21'9910.9
2015-Aug-28 16:30N 59°20' E 018°13'4 3.8
2015-Aug-28 15:26N 59°19' E 018°05'0 0.0
2015-Aug-28 14:32N 59°19' E 018°05'0 0.0
2015-Aug-28 13:32N 59°19' E 018°05'0 0.0
2015-Aug-28 12:32N 59°19' E 018°05'0 0.0
2015-Aug-28 11:32N 59°19' E 018°05'0 0.0
2015-Aug-28 10:32N 59°19' E 018°05'0 0.0
2015-Aug-28 09:26N 59°19' E 018°05'0 0.0
2015-Aug-28 08:32N 59°19' E 018°05'0 0.0
2015-Aug-28 07:29N 59°19' E 018°05'0 0.1
2015-Aug-28 06:31N 59°19' E 018°05'2 2.6
2015-Aug-28 05:33N 59°19' E 018°10'2 1.6
2015-Aug-28 04:33N 59°21' E 018°08'0 0.0
2015-Aug-28 03:33N 59°21' E 018°08'0 0.0
2015-Aug-28 02:33N 59°21' E 018°08'0 0.0
2015-Aug-28 01:33N 59°21' E 018°08'0 0.0
2015-Aug-28 00:33N 59°21' E 018°08'0 0.0
2015-Aug-27 23:33N 59°21' E 018°08'0 0.0
2015-Aug-27 22:33N 59°21' E 018°08'0 0.0
2015-Aug-27 21:33N 59°21' E 018°08'0 0.0
2015-Aug-27 20:33N 59°21' E 018°08'0 0.0
2015-Aug-27 19:33N 59°21' E 018°08'0 0.0
2015-Aug-27 18:33N 59°21' E 018°08'0 0.0
2015-Aug-27 17:33N 59°21' E 018°08'1 0.9
2015-Aug-27 16:33N 59°20' E 018°09'9 6.2
2015-Aug-27 15:06N 59°25' E 018°24'23011.5
2015-Aug-26 19:00N 55°48' E 020°48'   170 / 81018.010.8 1.519.016.3

Dump ship's entire track history